Time;durP1;ratioP1;P1;durP2;ratioP2;P2;SDS_P1;SDS_P2;PMS_P1;PMS_P2;Temp;Humidity;BMP_temperature;BMP_pressure;BME280_temperature;BME280_humidity;BME280_pressure;Samples;Min_cycle;Max_cycle;Signal;HPM_P1;HPM_P2
2023/08/24 00:02:06;;;;;;;8.35;5.00;;;21.90;90.20;;;;;;4944801;29;20027;-76
2023/08/24 00:04:37;;;;;;;6.05;5.10;;;21.90;90.00;;;;;;4928312;29;20051;-76
2023/08/24 00:07:03;;;;;;;7.25;5.07;;;21.80;89.90;;;;;;4944434;29;20051;-75
2023/08/24 00:09:29;;;;;;;7.93;5.00;;;21.80;90.00;;;;;;4944216;29;20030;-75
2023/08/24 00:11:55;;;;;;;8.90;4.88;;;21.80;90.10;;;;;;4944735;29;20186;-76
2023/08/24 00:14:21;;;;;;;8.27;5.43;;;21.80;89.90;;;;;;4945307;29;20377;-75
2023/08/24 00:16:46;;;;;;;10.00;5.15;;;21.80;90.30;;;;;;4945375;29;20024;-75
2023/08/24 00:19:12;;;;;;;7.28;5.15;;;21.80;90.40;;;;;;4944527;29;20096;-76
2023/08/24 00:21:38;;;;;;;7.50;5.05;;;21.80;90.40;;;;;;4944091;29;20131;-75
2023/08/24 00:24:04;;;;;;;7.82;4.72;;;21.70;90.30;;;;;;4944648;29;20331;-75
2023/08/24 00:26:30;;;;;;;7.28;4.95;;;21.70;90.10;;;;;;4947181;29;20088;-77
2023/08/24 00:28:56;;;;;;;9.27;5.35;;;21.70;90.40;;;;;;4948169;29;20064;-75
2023/08/24 06:19:34;;;;;;;8.57;5.05;;;22.60;90.70;;;;;;4981963;26;20328;-77
2023/08/24 06:21:59;;;;;;;7.75;4.93;;;22.60;90.60;;;;;;4964417;28;20098;-77
2023/08/24 06:24:25;;;;;;;8.48;5.35;;;22.70;90.70;;;;;;4984340;28;20316;-76
2023/08/24 06:26:51;;;;;;;9.73;5.88;;;22.70;90.60;;;;;;4980295;28;20035;-77
2023/08/24 06:29:16;;;;;;;8.23;4.90;;;22.80;90.50;;;;;;4967732;28;20042;-76
2023/08/24 06:31:42;;;;;;;8.30;5.63;;;22.90;90.40;;;;;;4967657;28;20042;-77
2023/08/24 06:34:08;;;;;;;9.77;5.93;;;23.00;90.10;;;;;;4984750;28;20208;-77
2023/08/24 06:36:34;;;;;;;9.45;5.72;;;22.90;90.30;;;;;;4966950;28;20089;-76
2023/08/24 06:39:00;;;;;;;9.68;5.45;;;22.90;90.40;;;;;;4984804;28;20049;-76
2023/08/24 06:41:25;;;;;;;8.23;5.18;;;22.90;90.40;;;;;;4967027;28;20248;-76
2023/08/24 06:43:53;;;;;;;9.07;5.70;;;22.90;90.50;;;;;;4984615;28;20035;-75
2023/08/24 06:46:19;;;;;;;9.65;5.95;;;23.00;90.20;;;;;;4984184;28;20031;-77
2023/08/24 06:48:45;;;;;;;7.43;5.10;;;23.00;90.30;;;;;;4967977;28;20061;-77
2023/08/24 06:51:11;;;;;;;9.20;5.65;;;23.00;90.20;;;;;;4984234;28;20026;-77
2023/08/24 06:53:37;;;;;;;10.85;5.53;;;22.90;90.40;;;;;;4983965;28;20339;-76
2023/08/24 06:56:03;;;;;;;10.15;5.65;;;22.90;90.50;;;;;;4967398;28;20054;-76
2023/08/24 06:58:29;;;;;;;8.23;5.60;;;22.90;90.40;;;;;;4966834;28;20039;-77
2023/08/24 07:00:56;;;;;;;10.23;6.18;;;22.90;90.60;;;;;;4967802;28;20049;-78
2023/08/24 07:03:21;;;;;;;11.70;5.60;;;23.10;90.40;;;;;;4951175;28;20041;-78
2023/08/24 07:05:47;;;;;;;12.45;5.68;;;23.10;90.30;;;;;;4967689;28;20038;-76
2023/08/24 07:08:13;;;;;;;9.50;4.72;;;23.30;90.20;;;;;;4951439;28;20027;-75
2023/08/24 07:10:39;;;;;;;11.05;4.65;;;23.50;88.80;;;;;;4966514;28;20269;-78
2023/08/24 07:13:07;;;;;;;11.23;5.45;;;23.80;88.40;;;;;;4950985;28;20026;-78
2023/08/24 07:15:34;;;;;;;8.20;5.40;;;24.10;87.90;;;;;;4958381;28;20038;-78
2023/08/24 07:18:05;;;;;;;12.45;5.63;;;24.30;87.00;;;;;;4947556;29;20074;-78
2023/08/24 07:20:32;;;;;;;11.82;5.65;;;24.40;86.70;;;;;;4959664;29;20024;-76
2023/08/24 07:22:58;;;;;;;9.30;5.67;;;24.60;86.20;;;;;;4928567;29;20108;-77
2023/08/24 07:25:24;;;;;;;13.15;6.18;;;24.70;85.80;;;;;;4949060;29;20295;-77
2023/08/24 07:27:50;;;;;;;10.25;5.50;;;24.80;85.70;;;;;;4947581;29;20101;-77
2023/08/24 07:30:16;;;;;;;9.38;5.68;;;24.80;85.80;;;;;;4964559;28;20237;-76
2023/08/24 07:32:42;;;;;;;13.02;5.25;;;24.80;85.50;;;;;;4964253;28;20023;-78
2023/08/24 07:35:08;;;;;;;11.05;6.05;;;24.90;85.00;;;;;;4963197;28;20035;-76
2023/08/24 07:37:34;;;;;;;9.02;5.05;;;25.10;85.10;;;;;;4963421;28;20023;-77
2023/08/24 07:39:59;;;;;;;9.52;6.13;;;25.10;84.40;;;;;;4964865;29;20039;-77
2023/08/24 07:42:25;;;;;;;12.20;5.65;;;24.90;84.90;;;;;;4964359;28;20309;-76
2023/08/24 07:44:51;;;;;;;8.73;5.05;;;24.70;85.30;;;;;;4964570;29;20045;-77
2023/08/24 07:47:17;;;;;;;9.73;5.20;;;24.70;85.20;;;;;;4964716;29;20280;-76
2023/08/24 07:49:45;;;;;;;7.25;4.30;;;24.60;85.60;;;;;;4963908;28;20074;-74
2023/08/24 07:52:12;;;;;;;7.53;4.75;;;24.70;84.70;;;;;;4964566;28;20031;-75
2023/08/24 07:54:38;;;;;;;6.88;4.57;;;24.70;83.30;;;;;;4963132;28;20279;-75
2023/08/24 07:57:05;;;;;;;7.70;4.50;;;24.70;83.40;;;;;;4964782;28;20031;-74
2023/08/24 07:59:31;;;;;;;7.18;4.47;;;24.90;83.70;;;;;;4974054;29;20039;-72
2023/08/24 08:01:57;;;;;;;8.07;4.38;;;25.00;82.20;;;;;;4975600;28;20051;-74
2023/08/24 08:04:23;;;;;;;9.32;4.32;;;25.00;82.40;;;;;;4975385;28;20035;-75
2023/08/24 08:06:48;;;;;;;8.98;5.05;;;25.20;82.20;;;;;;4969433;28;20042;-75
2023/08/24 08:09:14;;;;;;;6.22;4.32;;;25.10;81.40;;;;;;4964716;29;20304;-73
2023/08/24 08:11:40;;;;;;;9.95;4.00;;;25.20;81.80;;;;;;4963627;28;20094;-75
2023/08/24 08:14:05;;;;;;;7.00;3.65;;;25.30;81.50;;;;;;4947302;29;20026;-77
2023/08/24 08:16:31;;;;;;;10.38;4.25;;;25.50;80.80;;;;;;4963640;29;20047;-75
2023/08/24 08:18:57;;;;;;;7.93;3.58;;;25.50;81.00;;;;;;4963626;29;20316;-74
2023/08/24 08:21:23;;;;;;;5.82;3.75;;;25.60;81.00;;;;;;4960179;28;20321;-73
2023/08/24 08:23:49;;;;;;;8.15;3.72;;;25.50;81.30;;;;;;4949697;29;20090;-75
2023/08/24 08:26:16;;;;;;;8.73;4.00;;;25.50;81.50;;;;;;4956243;29;20292;-76
2023/08/24 08:28:42;;;;;;;8.90;3.72;;;25.60;81.10;;;;;;4963813;28;20038;-74
2023/08/24 08:31:08;;;;;;;8.63;3.88;;;25.70;80.90;;;;;;4964477;28;20058;-74
2023/08/24 08:33:33;;;;;;;7.78;3.97;;;25.80;80.00;;;;;;4962806;28;20059;-76
2023/08/24 08:35:59;;;;;;;8.23;3.60;;;25.90;79.50;;;;;;4963852;28;20305;-75
2023/08/24 08:38:28;;;;;;;6.70;3.60;;;25.90;80.10;;;;;;4964019;28;20031;-78
2023/08/24 08:40:58;;;;;;;6.65;3.35;;;26.10;79.40;;;;;;4964199;28;20057;-75
2023/08/24 08:43:24;;;;;;;7.45;3.88;;;26.20;79.10;;;;;;4978919;28;20031;-77
2023/08/24 08:45:52;;;;;;;6.38;3.83;;;26.40;78.70;;;;;;4970347;28;20221;-74
2023/08/24 08:48:20;;;;;;;7.22;3.75;;;26.50;78.50;;;;;;4967228;29;20078;-76
2023/08/24 08:50:48;;;;;;;6.13;3.10;;;26.60;77.70;;;;;;4967329;29;20305;-76
2023/08/24 08:53:15;;;;;;;5.82;3.35;;;26.60;77.80;;;;;;4967645;29;20031;-74
2023/08/24 08:55:42;;;;;;;9.80;4.13;;;26.70;77.80;;;;;;4966451;29;20032;-75
2023/08/24 08:58:08;;;;;;;7.88;3.63;;;26.70;77.60;;;;;;4967076;29;20046;-76
2023/08/24 09:00:35;;;;;;;15.32;4.13;;;26.80;78.00;;;;;;4949575;29;20039;-74
2023/08/24 09:03:02;;;;;;;12.15;4.35;;;26.90;77.50;;;;;;4967161;29;20035;-76
2023/08/24 09:05:28;;;;;;;7.68;4.22;;;27.00;77.60;;;;;;4966768;29;20106;-76
2023/08/24 09:07:56;;;;;;;9.27;3.33;;;27.10;76.80;;;;;;4967261;29;20596;-74
2023/08/24 09:10:23;;;;;;;7.07;4.00;;;27.10;77.20;;;;;;4966862;29;20027;-75
2023/08/24 09:12:48;;;;;;;7.13;3.83;;;27.10;78.00;;;;;;4966526;29;20031;-74
2023/08/24 09:15:14;;;;;;;10.18;3.67;;;27.20;77.50;;;;;;4966822;28;20152;-74
2023/08/24 09:17:44;;;;;;;7.53;3.70;;;27.30;77.50;;;;;;4966629;29;20049;-74
2023/08/24 09:20:10;;;;;;;9.38;4.15;;;27.40;76.70;;;;;;4966735;29;20269;-73
2023/08/24 09:22:37;;;;;;;8.50;4.15;;;27.30;76.80;;;;;;4966169;29;20033;-73
2023/08/24 09:25:06;;;;;;;8.45;4.22;;;27.40;76.90;;;;;;4965835;28;20031;-73
2023/08/24 09:27:32;;;;;;;8.60;4.00;;;27.50;76.20;;;;;;4966113;29;20030;-75
2023/08/24 09:29:58;;;;;;;6.93;3.72;;;27.60;76.80;;;;;;4966887;28;20099;-76
2023/08/24 09:32:27;;;;;;;20.67;4.28;;;27.70;76.50;;;;;;4965849;28;20039;-75
2023/08/24 09:34:53;;;;;;;7.18;3.40;;;27.90;76.30;;;;;;4966557;28;20101;-74
2023/08/24 09:37:19;;;;;;;6.43;3.90;;;28.00;75.90;;;;;;4966602;28;20035;-75
2023/08/24 09:39:45;;;;;;;5.88;3.80;;;28.20;75.10;;;;;;4966346;28;20090;-74
2023/08/24 09:42:12;;;;;;;9.73;3.65;;;28.20;75.40;;;;;;4966750;28;20257;-73
2023/08/24 09:44:38;;;;;;;7.55;3.80;;;28.30;75.30;;;;;;4965878;28;20030;-75
2023/08/24 09:47:12;;;;;;;7.78;4.25;;;28.40;75.00;;;;;;4965765;28;20086;-74
2023/08/24 09:49:38;;;;;;;7.93;3.60;;;28.50;74.70;;;;;;4965643;29;20046;-73
2023/08/24 09:52:07;;;;;;;8.65;4.05;;;28.60;75.30;;;;;;4966371;28;20035;-77
2023/08/24 09:54:36;;;;;;;6.57;3.85;;;28.70;74.10;;;;;;4965898;28;20094;-74
2023/08/24 09:57:04;;;;;;;7.57;3.47;;;28.80;74.50;;;;;;4966277;28;20035;-74
2023/08/24 09:59:31;;;;;;;5.65;3.90;;;28.90;74.30;;;;;;4965382;28;20068;-75
2023/08/24 10:02:01;;;;;;;6.07;3.58;;;28.90;73.90;;;;;;4965273;28;20320;-75
2023/08/24 10:04:29;;;;;;;7.80;3.80;;;29.00;73.40;;;;;;4966249;28;20059;-76
2023/08/24 10:07:20;;;;;;;7.82;3.50;;;29.10;73.50;;;;;;4964835;28;20046;-76
2023/08/24 10:10:02;;;;;;;6.70;3.58;;;29.30;73.60;;;;;;4965956;28;20256;-74
2023/08/24 10:12:31;;;;;;;9.23;3.55;;;29.50;73.10;;;;;;4965088;28;20062;-74
2023/08/24 10:15:03;;;;;;;7.38;3.20;;;29.70;72.90;;;;;;4961761;28;20160;-74
2023/08/24 10:17:33;;;;;;;7.88;3.63;;;29.80;72.60;;;;;;4946996;29;20050;-76
2023/08/24 10:20:08;;;;;;;6.07;3.88;;;29.90;72.40;;;;;;4960762;29;20050;-75
2023/08/24 10:22:36;;;;;;;6.22;3.50;;;30.00;72.20;;;;;;4965690;29;20035;-75
2023/08/24 10:25:03;;;;;;;6.47;4.00;;;30.10;72.10;;;;;;4965945;29;20049;-75
2023/08/24 10:27:29;;;;;;;6.57;3.88;;;30.30;71.90;;;;;;4965651;28;20194;-75
2023/08/24 10:29:56;;;;;;;7.32;3.88;;;30.10;71.60;;;;;;4965079;28;20050;-75
2023/08/24 10:32:26;;;;;;;6.68;3.67;;;30.40;71.90;;;;;;4965452;28;20236;-73
2023/08/24 10:34:52;;;;;;;6.53;3.75;;;30.70;71.80;;;;;;4965518;28;20294;-73
2023/08/24 10:37:25;;;;;;;11.75;4.32;;;30.80;71.30;;;;;;4964371;28;20208;-75
2023/08/24 10:39:51;;;;;;;6.97;3.78;;;30.90;71.20;;;;;;4964718;29;20039;-75
2023/08/24 10:42:16;;;;;;;5.35;3.47;;;31.20;70.80;;;;;;4965514;28;20031;-75
2023/08/24 10:44:46;;;;;;;7.32;3.47;;;31.20;70.40;;;;;;4964622;28;20082;-76
2023/08/24 10:47:16;;;;;;;8.85;4.05;;;31.30;70.40;;;;;;4965081;29;20027;-75
2023/08/24 10:49:42;;;;;;;5.78;3.75;;;31.50;69.90;;;;;;4964855;29;20056;-74
2023/08/24 10:52:22;;;;;;;6.40;3.90;;;31.70;69.80;;;;;;4965501;28;20082;-74
2023/08/24 10:54:52;;;;;;;8.57;3.70;;;31.90;69.50;;;;;;4963491;28;20105;-75
2023/08/24 10:57:23;;;;;;;6.25;3.70;;;32.10;69.20;;;;;;4964751;28;20045;-75
2023/08/24 11:00:09;;;;;;;6.90;3.92;;;32.30;68.90;;;;;;4964081;28;20094;-75
2023/08/24 11:02:49;;;;;;;7.50;4.00;;;32.50;68.50;;;;;;4964760;28;20026;-75
2023/08/24 11:05:21;;;;;;;9.10;4.13;;;32.90;69.00;;;;;;4965066;29;20035;-76
2023/08/24 11:07:56;;;;;;;9.48;4.80;;;33.00;67.40;;;;;;4964223;28;20094;-76
2023/08/24 11:10:23;;;;;;;7.28;4.18;;;33.00;67.40;;;;;;4964930;28;20318;-75
2023/08/24 11:13:09;;;;;;;6.90;4.05;;;33.30;67.30;;;;;;4964324;28;20034;-75
2023/08/24 11:15:42;;;;;;;10.02;4.20;;;33.50;67.10;;;;;;4959569;28;20042;-75
2023/08/24 11:18:26;;;;;;;9.18;4.22;;;33.70;66.50;;;;;;4953181;29;20233;-75
2023/08/24 11:20:54;;;;;;;6.38;3.80;;;34.00;65.90;;;;;;4952435;29;20055;-75
2023/08/24 11:23:21;;;;;;;7.07;4.10;;;34.40;66.10;;;;;;4963310;29;20030;-76
2023/08/24 11:25:49;;;;;;;6.87;4.13;;;34.90;65.60;;;;;;4963713;29;20037;-76
2023/08/24 11:28:19;;;;;;;5.10;3.50;;;35.10;63.80;;;;;;4964958;29;20559;-74
2023/08/24 11:30:46;;;;;;;4.80;3.33;;;35.80;63.00;;;;;;4960716;29;20229;-73
2023/08/24 11:33:31;;;;;;;11.75;4.10;;;36.50;62.10;;;;;;4964566;29;20242;-75
2023/08/24 11:35:58;;;;;;;9.50;4.35;;;37.30;60.60;;;;;;4964366;29;20042;-76
2023/08/24 11:38:24;;;;;;;9.93;3.72;;;38.00;59.90;;;;;;4964660;29;20035;-75
2023/08/24 11:40:50;;;;;;;7.50;3.47;;;38.80;58.60;;;;;;4963759;29;20031;-74
2023/08/24 11:43:26;;;;;;;7.30;3.47;;;39.60;57.40;;;;;;4963917;29;20035;-75
2023/08/24 11:45:53;;;;;;;8.65;3.03;;;40.30;56.60;;;;;;4963690;29;20051;-75
2023/08/24 11:48:23;;;;;;;;;;;40.80;56.10;;;;;;4964360;29;20031;-74
2023/08/24 11:50:49;;;;;;;4.60;2.92;;;41.00;55.80;;;;;;4963399;29;19906;-74
2023/08/24 11:53:17;;;;;;;5.97;3.50;;;41.80;55.30;;;;;;4964397;29;20027;-75
2023/08/24 11:55:43;;;;;;;6.65;3.40;;;42.10;54.90;;;;;;4959756;29;20258;-77
2023/08/24 11:58:16;;;;;;;7.18;3.40;;;42.70;53.40;;;;;;4945081;29;20036;-75
2023/08/24 12:00:43;;;;;;;7.65;3.88;;;42.30;53.60;;;;;;4944758;29;20202;-74
2023/08/24 12:03:09;;;;;;;5.82;3.38;;;41.60;54.10;;;;;;4930308;29;20027;-75
2023/08/24 12:05:36;;;;;;;7.63;3.80;;;41.20;54.30;;;;;;4964603;29;20024;-75
2023/08/24 12:08:02;;;;;;;8.00;3.83;;;41.30;54.70;;;;;;4964219;29;20050;-73
2023/08/24 12:10:28;;;;;;;6.20;3.33;;;41.70;54.40;;;;;;4964313;29;20343;-73
2023/08/24 12:13:06;;;;;;;6.13;3.47;;;42.30;53.30;;;;;;4963861;29;20439;-74
2023/08/24 12:15:35;;;;;;;5.15;3.22;;;42.60;53.10;;;;;;4964579;29;20054;-73
2023/08/24 12:18:08;;;;;;;6.97;3.58;;;42.80;52.70;;;;;;4963393;29;20046;-75
2023/08/24 12:20:34;;;;;;;5.82;3.20;;;43.30;52.00;;;;;;4964418;28;20367;-74
2023/08/24 12:23:00;;;;;;;5.53;3.58;;;43.80;52.20;;;;;;4966041;29;20039;-76
2023/08/24 12:25:25;;;;;;;4.93;3.20;;;44.50;50.90;;;;;;4968289;29;20024;-73
2023/08/24 12:27:52;;;;;;;5.80;3.05;;;44.60;50.70;;;;;;4967421;29;20335;-75
2023/08/24 12:30:21;;;;;;;7.55;3.65;;;44.60;51.00;;;;;;4967997;28;20035;-75
2023/08/24 12:32:50;;;;;;;7.07;3.85;;;44.60;50.80;;;;;;4967178;28;20252;-74
2023/08/24 12:35:16;;;;;;;4.68;3.15;;;44.00;50.90;;;;;;4967576;29;20107;-74
2023/08/24 12:37:45;;;;;;;6.30;2.85;;;43.90;51.10;;;;;;4960707;29;20065;-75
2023/08/24 12:40:11;;;;;;;7.38;3.33;;;43.90;51.30;;;;;;4952825;29;20247;-76
2023/08/24 12:42:36;;;;;;;6.45;3.20;;;43.00;52.30;;;;;;4966640;29;20019;-76
2023/08/24 12:45:04;;;;;;;6.20;3.47;;;43.40;52.20;;;;;;4967183;29;20564;-74
2023/08/24 12:47:30;;;;;;;4.75;2.75;;;43.30;51.40;;;;;;4967790;29;20137;-74
2023/08/24 12:49:56;;;;;;;5.78;3.63;;;43.30;51.70;;;;;;4966669;29;20304;-74
2023/08/24 12:52:24;;;;;;;6.53;3.50;;;42.70;51.90;;;;;;4967420;29;20039;-75
2023/08/24 12:54:50;;;;;;;5.82;3.50;;;43.60;51.50;;;;;;4966969;29;20062;-75
2023/08/24 12:57:16;;;;;;;8.35;3.88;;;44.60;50.60;;;;;;4967515;29;20209;-75
2023/08/24 12:59:41;;;;;;;9.60;3.53;;;45.60;49.90;;;;;;4966957;29;20038;-76
2023/08/24 13:02:07;;;;;;;9.07;3.43;;;47.00;48.80;;;;;;4966365;29;20094;-74
2023/08/24 13:04:33;;;;;;;7.20;2.83;;;47.60;47.80;;;;;;4968559;29;20273;-75
2023/08/24 13:06:59;;;;;;;7.13;3.20;;;47.50;47.10;;;;;;4972443;29;20034;-75
2023/08/24 13:09:25;;;;;;;5.07;3.13;;;46.90;47.30;;;;;;4973153;29;20054;-73
2023/08/24 13:11:51;;;;;;;5.82;3.28;;;46.00;48.30;;;;;;4971450;29;20039;-73
2023/08/24 13:14:16;;;;;;;11.67;3.90;;;45.50;48.40;;;;;;4975663;28;20105;-73
2023/08/24 13:16:42;;;;;;;8.70;3.75;;;45.60;48.80;;;;;;4985779;28;20026;-74
2023/08/24 13:19:08;;;;;;;7.70;3.45;;;44.90;48.50;;;;;;4969119;28;20063;-73
2023/08/24 13:21:33;;;;;;;7.90;3.55;;;44.60;49.20;;;;;;4986471;28;20360;-73
2023/08/24 13:23:59;;;;;;;11.90;3.25;;;44.60;49.40;;;;;;4985570;28;20049;-73
2023/08/24 13:26:25;;;;;;;6.68;3.40;;;44.10;49.80;;;;;;4975267;28;20081;-72
2023/08/24 13:28:51;;;;;;;6.70;3.00;;;44.50;49.60;;;;;;4966283;29;20090;-72
2023/08/24 13:31:18;;;;;;;9.40;4.05;;;45.10;49.40;;;;;;4966997;29;20244;-72
2023/08/24 13:33:45;;;;;;;10.27;4.03;;;46.20;48.50;;;;;;4965506;28;20019;-73
2023/08/24 13:36:11;;;;;;;5.97;3.28;;;46.50;47.70;;;;;;4949807;29;20031;-73
2023/08/24 13:38:37;;;;;;;7.43;3.17;;;46.90;47.10;;;;;;4966871;29;20046;-72
2023/08/24 13:41:03;;;;;;;6.63;3.00;;;47.40;46.70;;;;;;4966006;29;20375;-72
2023/08/24 13:43:29;;;;;;;8.30;3.20;;;47.70;46.30;;;;;;4966429;29;20031;-72
2023/08/24 13:45:55;;;;;;;8.43;3.10;;;48.10;46.00;;;;;;4965208;29;20043;-73
2023/08/24 13:48:21;;;;;;;6.80;3.30;;;47.90;45.60;;;;;;4966654;29;20304;-72
2023/08/24 13:50:54;;;;;;;9.83;3.33;;;48.20;45.60;;;;;;4965802;29;20031;-72
2023/08/24 13:53:20;;;;;;;6.88;3.33;;;48.60;45.50;;;;;;4966430;29;20039;-73
2023/08/24 13:55:46;;;;;;;6.05;2.90;;;49.00;45.30;;;;;;4965649;29;20042;-73
2023/08/24 13:58:11;;;;;;;7.40;3.20;;;48.80;44.70;;;;;;4965447;29;20221;-74
2023/08/24 14:00:37;;;;;;;7.60;3.47;;;48.90;44.60;;;;;;4966341;29;20267;-73
2023/08/24 14:03:04;;;;;;;8.37;2.97;;;49.50;44.30;;;;;;4965929;28;20086;-72
2023/08/24 14:05:30;;;;;;;8.68;2.90;;;49.80;43.40;;;;;;4965162;28;20453;-73
2023/08/24 14:07:55;;;;;;;5.40;3.20;;;49.50;43.90;;;;;;4965475;28;20061;-72
2023/08/24 14:10:21;;;;;;;4.50;2.63;;;49.20;44.70;;;;;;4966092;28;20087;-72
2023/08/24 14:12:47;;;;;;;7.22;3.35;;;50.00;44.20;;;;;;4965466;29;20027;-73
2023/08/24 14:15:13;;;;;;;5.50;3.00;;;48.50;44.00;;;;;;4966131;28;20027;-73
2023/08/24 14:17:39;;;;;;;;;;;47.50;45.80;;;;;;4965991;28;20486;-72
2023/08/24 14:20:05;;;;;;;6.50;3.10;;;47.20;45.00;;;;;;4965291;29;20131;-72
2023/08/24 14:22:31;;;;;;;8.68;3.00;;;46.20;45.60;;;;;;4965719;28;20094;-73
2023/08/24 14:24:57;;;;;;;7.10;2.90;;;44.90;46.90;;;;;;4965111;28;20094;-73
2023/08/24 14:27:22;;;;;;;9.27;3.15;;;44.60;47.70;;;;;;4965675;28;20027;-73
2023/08/24 14:29:48;;;;;;;7.97;3.10;;;43.40;48.10;;;;;;4964262;28;20127;-73
2023/08/24 14:32:14;;;;;;;45.72;12.35;;;42.50;49.50;;;;;;4965977;28;20093;-73
2023/08/24 14:34:39;;;;;;;47.67;11.13;;;41.90;50.10;;;;;;4965738;28;20332;-74
2023/08/24 14:37:05;;;;;;;16.60;4.68;;;41.20;50.40;;;;;;4965162;29;20015;-73
2023/08/24 14:39:31;;;;;;;9.95;3.58;;;40.40;50.80;;;;;;4965367;28;20324;-73
2023/08/24 14:41:56;;;;;;;10.85;3.50;;;40.00;52.10;;;;;;4965288;28;20281;-73
2023/08/24 14:44:22;;;;;;;9.40;3.63;;;39.60;51.40;;;;;;4965140;28;20041;-72
2023/08/24 14:46:48;;;;;;;11.18;3.42;;;39.40;51.10;;;;;;4964879;28;20042;-72
2023/08/24 14:49:18;;;;;;;8.68;3.25;;;38.70;52.90;;;;;;4965674;29;20201;-71
2023/08/24 14:51:45;;;;;;;11.30;3.30;;;38.10;52.00;;;;;;4965576;29;20315;-73
2023/08/24 14:54:13;;;;;;;9.07;3.70;;;37.60;52.80;;;;;;4963883;28;20067;-72
2023/08/24 14:56:39;;;;;;;10.73;3.60;;;37.10;53.40;;;;;;4965370;29;20035;-73
2023/08/24 14:59:05;;;;;;;11.98;5.05;;;36.50;54.20;;;;;;4964625;29;20050;-75
2023/08/24 15:01:31;;;;;;;20.83;4.43;;;36.10;55.40;;;;;;4965208;29;20043;-75
2023/08/24 15:03:56;;;;;;;16.58;4.50;;;35.80;57.20;;;;;;4965070;29;20222;-74
2023/08/24 15:06:22;;;;;;;11.20;4.05;;;34.90;64.60;;;;;;4965223;29;20031;-74
2023/08/24 15:08:48;;;;;;;15.35;4.65;;;33.40;68.80;;;;;;4965215;29;20038;-72
2023/08/24 15:11:16;;;;;;;14.63;3.90;;;31.90;78.10;;;;;;4964853;29;20038;-75
2023/08/24 15:13:42;;;;;;;6.00;2.33;;;29.90;81.80;;;;;;4965166;29;20352;-75
2023/08/24 15:16:09;;;;;;;9.13;3.00;;;28.70;84.50;;;;;;4964917;29;20355;-73
2023/08/24 15:18:36;;;;;;;9.02;2.75;;;28.20;85.90;;;;;;4964832;29;20114;-74
2023/08/24 15:21:02;;;;;;;12.77;3.50;;;27.80;86.50;;;;;;4947550;29;20343;-74
2023/08/24 15:23:30;;;;;;;5.40;2.40;;;27.80;86.40;;;;;;4964815;29;20043;-74
2023/08/24 15:25:57;;;;;;;8.73;2.53;;;27.70;86.10;;;;;;4947279;29;20039;-75
2023/08/24 15:28:24;;;;;;;15.05;3.65;;;27.80;86.60;;;;;;4964880;29;20082;-73
2023/08/24 15:30:50;;;;;;;10.98;4.00;;;28.00;85.60;;;;;;4964844;29;20031;-74
2023/08/24 15:33:17;;;;;;;10.32;3.35;;;28.00;85.90;;;;;;4964933;29;20073;-73
2023/08/24 15:35:43;;;;;;;8.27;3.85;;;28.10;86.70;;;;;;4964983;29;20297;-73
2023/08/24 15:38:10;;;;;;;7.88;3.50;;;28.30;85.80;;;;;;4964057;29;20027;-72
2023/08/24 15:40:37;;;;;;;5.88;2.92;;;28.20;85.00;;;;;;4964870;29;20035;-73
2023/08/24 15:43:04;;;;;;;6.85;3.38;;;28.00;84.80;;;;;;4963893;29;20037;-73
2023/08/24 15:45:31;;;;;;;5.90;2.80;;;28.10;85.00;;;;;;4964614;29;20035;-73
2023/08/24 15:47:58;;;;;;;5.80;3.05;;;28.10;84.70;;;;;;4964119;29;20054;-73
2023/08/24 15:50:24;;;;;;;5.65;2.78;;;28.10;84.00;;;;;;4964758;29;20042;-73
2023/08/24 15:52:52;;;;;;;5.90;2.83;;;27.80;83.50;;;;;;4964812;29;20090;-73
2023/08/24 15:55:17;;;;;;;5.03;2.20;;;27.50;83.50;;;;;;4963386;28;20035;-74
2023/08/24 15:57:43;;;;;;;6.03;2.30;;;27.20;84.60;;;;;;4967323;28;20318;-75
2023/08/24 16:00:10;;;;;;;6.35;2.50;;;27.00;85.50;;;;;;4967791;29;20074;-73
2023/08/24 16:02:38;;;;;;;6.40;2.55;;;26.80;86.40;;;;;;4968367;28;20096;-75
2023/08/24 16:05:05;;;;;;;7.07;2.17;;;26.60;87.30;;;;;;4967781;29;20023;-72
2023/08/24 16:07:31;;;;;;;4.25;2.30;;;26.50;87.80;;;;;;4968408;28;20019;-73
2023/08/24 16:09:57;;;;;;;5.03;2.63;;;26.50;87.80;;;;;;4951106;29;20054;-73
2023/08/24 16:12:22;;;;;;;6.50;3.05;;;26.60;87.40;;;;;;4968363;28;20019;-74
2023/08/24 16:14:48;;;;;;;7.53;2.72;;;26.60;87.60;;;;;;4967111;29;20031;-73
2023/08/24 16:17:14;;;;;;;5.97;2.55;;;26.60;87.90;;;;;;4967348;28;20034;-72
2023/08/24 16:19:39;;;;;;;8.80;2.75;;;26.60;88.00;;;;;;4967889;29;20233;-72
2023/08/24 16:22:06;;;;;;;5.07;2.35;;;26.60;88.60;;;;;;4967596;28;20027;-73
2023/08/24 16:24:33;;;;;;;5.18;2.50;;;26.70;88.50;;;;;;4968120;28;20031;-74
2023/08/24 16:26:59;;;;;;;29.27;4.60;;;26.90;87.90;;;;;;4967600;29;20306;-73
2023/08/24 16:29:26;;;;;;;7.63;2.40;;;27.10;86.40;;;;;;4967877;28;20102;-73
2023/08/24 16:31:53;;;;;;;7.38;2.60;;;27.10;85.90;;;;;;4967731;29;20038;-74
2023/08/24 16:34:19;;;;;;;7.38;3.38;;;27.30;85.30;;;;;;4968332;28;20031;-74
2023/08/24 16:36:44;;;;;;;5.35;2.72;;;27.40;85.50;;;;;;4966805;28;20027;-75
2023/08/24 16:39:11;;;;;;;5.63;2.47;;;27.40;85.30;;;;;;4966628;28;20035;-73
2023/08/24 16:41:38;;;;;;;4.00;1.95;;;27.50;84.00;;;;;;4967743;29;20102;-75
2023/08/24 16:44:03;;;;;;;5.25;1.70;;;27.50;82.90;;;;;;4967171;29;20019;-74
2023/08/24 16:46:29;;;;;;;17.42;3.22;;;27.70;82.20;;;;;;4966766;29;20266;-73
2023/08/24 16:48:55;;;;;;;5.75;2.00;;;27.80;82.70;;;;;;4966117;28;20035;-75
2023/08/24 16:51:21;;;;;;;4.20;1.55;;;27.80;82.30;;;;;;4966979;29;20019;-75
2023/08/24 16:53:46;;;;;;;2.58;1.45;;;27.70;81.30;;;;;;4967192;29;20077;-76
2023/08/24 16:56:14;;;;;;;5.63;1.63;;;27.50;80.60;;;;;;4967149;29;20027;-75
2023/08/24 16:58:47;;;;;;;6.13;1.85;;;27.50;80.90;;;;;;4957779;29;20032;-74
2023/08/24 17:01:13;;;;;;;4.10;1.50;;;27.50;80.30;;;;;;4963877;29;20027;-74
2023/08/24 17:03:39;;;;;;;2.42;1.48;;;27.20;80.70;;;;;;4966063;29;20146;-76
2023/08/24 17:06:05;;;;;;;3.55;1.25;;;27.10;81.70;;;;;;4967070;29;20085;-75
2023/08/24 17:08:30;;;;;;;4.22;1.75;;;27.00;81.60;;;;;;4967393;28;20046;-74
2023/08/24 17:10:56;;;;;;;3.45;1.77;;;26.90;82.40;;;;;;4967098;29;20030;-77
2023/08/24 17:13:22;;;;;;;7.07;2.17;;;26.90;81.90;;;;;;4967471;29;20035;-74
2023/08/24 17:15:50;;;;;;;4.05;2.03;;;26.80;81.90;;;;;;4966629;29;20083;-76
2023/08/24 17:18:16;;;;;;;4.55;2.10;;;26.70;82.10;;;;;;4970126;28;20086;-76
2023/08/24 17:20:42;;;;;;;3.42;2.03;;;26.70;82.20;;;;;;4966854;28;20039;-76
2023/08/24 17:23:08;;;;;;;3.85;1.50;;;26.70;82.10;;;;;;4966519;28;20039;-74
2023/08/24 17:25:34;;;;;;;6.57;2.63;;;26.70;81.30;;;;;;4965786;28;20038;-74
2023/08/24 17:27:59;;;;;;;4.47;2.00;;;26.70;80.30;;;;;;4966819;28;20031;-75
2023/08/24 17:30:25;;;;;;;4.95;2.20;;;26.60;80.70;;;;;;4966872;28;20027;-75
2023/08/24 17:32:51;;;;;;;6.45;2.40;;;26.50;80.50;;;;;;4965901;28;20035;-76
2023/08/24 17:35:17;;;;;;;3.50;1.83;;;26.50;80.80;;;;;;4966153;28;20658;-75
2023/08/24 17:37:42;;;;;;;3.47;1.73;;;26.60;80.00;;;;;;4965347;29;20031;-74
2023/08/24 17:40:10;;;;;;;4.88;2.20;;;26.70;79.70;;;;;;4965939;29;20035;-73
2023/08/24 17:42:40;;;;;;;5.03;1.40;;;26.70;78.60;;;;;;4966874;29;20058;-75
2023/08/24 17:45:09;;;;;;;5.38;1.77;;;26.70;78.60;;;;;;4966148;29;20275;-75
2023/08/24 17:47:34;;;;;;;4.75;1.50;;;26.80;78.30;;;;;;4966424;29;20082;-76
2023/08/24 17:50:01;;;;;;;3.97;1.48;;;26.90;78.10;;;;;;4960301;29;20084;-75
2023/08/24 17:52:27;;;;;;;3.88;1.77;;;26.90;77.90;;;;;;4959312;29;20066;-74
2023/08/24 17:54:53;;;;;;;5.40;2.28;;;27.00;78.00;;;;;;4966667;29;20039;-75
2023/08/24 17:57:19;;;;;;;6.05;1.75;;;27.00;78.00;;;;;;4965753;29;20225;-75
2023/08/24 17:59:44;;;;;;;5.88;2.20;;;27.00;77.80;;;;;;4966235;29;20031;-75
2023/08/24 18:02:10;;;;;;;3.65;1.60;;;27.00;78.00;;;;;;4966023;28;20027;-75
2023/08/24 18:04:36;;;;;;;4.60;2.22;;;27.00;78.40;;;;;;4965414;28;20265;-75
2023/08/24 18:07:01;;;;;;;5.05;2.15;;;26.90;78.70;;;;;;4964864;28;20287;-75
2023/08/24 18:09:27;;;;;;;4.32;2.30;;;26.90;78.90;;;;;;4966310;29;20037;-74
2023/08/24 18:11:53;;;;;;;6.78;2.30;;;26.80;79.30;;;;;;4966288;29;20031;-75
2023/08/24 18:14:18;;;;;;;3.83;2.50;;;26.70;83.00;;;;;;4965986;29;20039;-75
2023/08/24 18:16:44;;;;;;;3.72;2.20;;;26.40;84.20;;;;;;4974785;29;20023;-75
2023/08/24 18:19:10;;;;;;;5.63;2.50;;;26.20;84.60;;;;;;4977422;28;20043;-74
2023/08/24 18:21:36;;;;;;;5.53;2.60;;;26.10;85.30;;;;;;4979545;28;20094;-78
2023/08/24 18:24:03;;;;;;;6.15;2.50;;;25.90;87.20;;;;;;4978101;28;20043;-77
2023/08/24 18:26:29;;;;;;;5.80;2.78;;;25.70;88.70;;;;;;4965469;29;20035;-78
2023/08/24 18:28:54;;;;;;;6.30;2.85;;;25.50;89.80;;;;;;4965908;28;20039;-75
2023/08/24 18:31:21;;;;;;;7.00;2.92;;;25.30;90.50;;;;;;4965701;28;20216;-77
2023/08/24 18:33:49;;;;;;;6.22;3.10;;;25.10;91.00;;;;;;4965655;29;20062;-74